KDSV/DSV METAR and TAF weather

Enter ICAO airport designator
Station Type Date Time Source
KDSV METAR 2018/04/21 19:54 UTC NOAA

KDSV 211954Z AUTO 35013G19KT 10SM CLR 13/M05 A3037 RMK AO2 SLP299 T01281050


Station Type Date Time Source
KDSV Decoded METAR 2018/04/21 19:54 UTC NOAA

DANSVILLE MUNICIPAL AIRPORT, NY, United States (KDSV) 42-34N 077-43W 198M
Apr 21, 2018 - 03:54 PM EDT / 2018.04.21 1954 UTC
Wind: from the N (350 degrees) at 15 MPH (13 KT) gusting to 22 MPH (19 KT):0
Visibility: 10 mile(s):0
Sky conditions: clear
Temperature: 55.0 F (12.8 C)
Dew Point: 23.0 F (-5.0 C)
Relative Humidity: 28%
Pressure (altimeter): 30.37 in. Hg (1028 hPa)
ob: KDSV 211954Z AUTO 35013G19KT 10SM CLR 13/M05 A3037 RMK AO2 SLP299 T01281050
cycle: 20

Station Type Date Time Source
KDSV TAF UTC NOAA

Error!


Example: see airport list